createdAt,value
2023-05-20T00:02:29.259Z,102698.41
2023-05-20T00:04:57.453Z,102705.31
2023-05-20T00:07:25.492Z,102709.47
2023-05-20T00:09:53.522Z,102705.19
2023-05-20T00:12:21.536Z,102703.91
2023-05-20T00:14:49.478Z,102711.88
2023-05-20T00:17:17.679Z,102710.59
2023-05-20T00:19:47.020Z,102707.56
2023-05-20T00:22:14.954Z,102706.06
2023-05-20T00:24:42.876Z,102714.25
2023-05-20T00:27:10.877Z,102714.69
2023-05-20T00:29:38.809Z,102713.38
2023-05-20T00:32:07.748Z,102704.97
2023-05-20T00:34:35.823Z,102704.97
2023-05-20T00:37:05.134Z,102709.72
2023-05-20T00:39:33.088Z,102706.50
2023-05-20T00:42:03.488Z,102705.84
2023-05-20T00:44:31.480Z,102707.56
2023-05-20T00:46:59.401Z,102695.50
2023-05-20T00:49:27.402Z,102703.69
2023-05-20T00:51:56.017Z,102700.22
2023-05-20T00:54:25.343Z,102696.78
2023-05-20T00:56:53.366Z,102691.59
2023-05-20T00:59:21.652Z,102696.34
2023-05-20T01:01:49.609Z,102688.38
2023-05-20T01:04:17.601Z,102687.31
2023-05-20T01:06:46.306Z,102692.69
2023-05-20T01:09:14.978Z,102696.16
2023-05-20T01:11:48.658Z,102692.91
2023-05-20T01:14:17.778Z,102695.50
2023-05-20T01:16:48.143Z,102693.56
2023-05-20T01:19:23.771Z,102687.34
2023-05-20T01:21:51.974Z,102686.25
2023-05-20T01:24:21.278Z,102684.31
2023-05-20T01:26:50.441Z,102685.19
2023-05-20T01:29:18.861Z,102690.13
2023-05-20T01:31:48.402Z,102687.31
2023-05-20T01:34:17.011Z,102677.84
2023-05-20T01:36:47.263Z,102679.97
2023-05-20T01:39:15.315Z,102693.34
2023-05-20T01:41:45.170Z,102689.03
2023-05-20T01:44:13.236Z,102686.88
2023-05-20T01:46:41.293Z,102682.59
2023-05-20T01:49:09.319Z,102680.63
2023-05-20T01:51:38.086Z,102677.41
2023-05-20T01:54:06.073Z,102681.50
2023-05-20T01:56:34.199Z,102674.81
2023-05-20T01:59:03.543Z,102672.25
2023-05-20T02:01:31.583Z,102683.88
2023-05-20T02:03:59.528Z,102685.59
2023-05-20T02:06:27.464Z,102690.78
2023-05-20T02:08:55.460Z,102674.19
2023-05-20T02:11:23.428Z,102685.56
2023-05-20T02:13:51.466Z,102683.41
2023-05-20T02:16:20.959Z,102678.22
2023-05-20T02:18:48.957Z,102682.72
2023-05-20T02:21:16.899Z,102674.53
2023-05-20T02:23:45.296Z,102669.78
2023-05-20T02:26:13.253Z,102670.88
2023-05-20T02:28:46.558Z,102672.34
2023-05-20T02:31:14.514Z,102677.03
2023-05-20T02:33:43.883Z,102668.22
2023-05-20T02:36:11.860Z,102675.13
2023-05-20T02:38:39.861Z,102674.69
2023-05-20T02:41:07.892Z,102668.28
2023-05-20T02:43:36.486Z,102669.16
2023-05-20T02:46:04.886Z,102665.25
2023-05-20T02:48:32.842Z,102663.31
2023-05-20T02:51:02.187Z,102667.41
2023-05-20T02:53:30.106Z,102666.13
2023-05-20T02:55:58.804Z,102666.34
2023-05-20T02:58:27.815Z,102668.06
2023-05-20T03:00:57.814Z,102672.16
2023-05-20T03:03:41.392Z,102673.81
2023-05-20T03:06:10.897Z,102683.22
2023-05-20T03:08:40.320Z,102668.44
2023-05-20T03:11:08.250Z,102667.78
2023-05-20T03:13:36.287Z,102673.78
2023-05-20T03:16:04.419Z,102676.38
2023-05-20T03:18:32.365Z,102669.69
2023-05-20T03:21:00.299Z,102676.56
2023-05-20T03:23:29.635Z,102686.25
2023-05-20T03:25:57.590Z,102684.06
2023-05-20T03:28:25.518Z,102677.19
2023-05-20T03:30:53.497Z,102672.44
2023-05-20T03:33:22.807Z,102668.78
2023-05-20T03:35:50.756Z,102673.31
2023-05-20T03:38:18.692Z,102676.94
2023-05-20T03:40:48.049Z,102665.94
2023-05-20T03:43:15.969Z,102671.03
2023-05-20T03:45:43.962Z,102674.97
2023-05-20T03:48:11.868Z,102676.28
2023-05-20T03:50:39.795Z,102685.06
2023-05-20T03:53:07.754Z,102685.25
2023-05-20T03:55:36.017Z,102675.47
2023-05-20T03:58:05.597Z,102675.28
2023-05-20T04:00:33.532Z,102680.34
2023-05-20T04:03:02.137Z,102673.91
2023-05-20T04:05:30.121Z,102679.72
2023-05-20T04:07:58.583Z,102686.13
2023-05-20T04:10:26.547Z,102684.69
2023-05-20T04:12:55.004Z,102679.91
2023-05-20T04:15:25.296Z,102681.25
2023-05-20T04:17:53.560Z,102674.34
2023-05-20T04:20:21.519Z,102670.25
2023-05-20T04:22:49.496Z,102680.34
2023-05-20T04:25:17.685Z,102677.31
2023-05-20T04:27:46.042Z,102673.09
2023-05-20T04:30:14.302Z,102677.88
2023-05-20T04:32:43.736Z,102678.81
2023-05-20T04:35:13.970Z,102678.50
2023-05-20T04:37:44.651Z,102676.69
2023-05-20T04:40:13.942Z,102680.91
2023-05-20T04:42:41.900Z,102665.91
2023-05-20T04:45:10.608Z,102671.09
2023-05-20T04:47:39.698Z,102674.38
2023-05-20T04:50:11.770Z,102679.81
2023-05-20T04:52:40.142Z,102675.16
2023-05-20T04:55:09.801Z,102673.44
2023-05-20T04:57:39.654Z,102676.69
2023-05-20T05:00:09.288Z,102670.84
2023-05-20T05:02:37.615Z,102664.91
2023-05-20T05:05:06.300Z,102672.22
2023-05-20T05:07:35.873Z,102667.47
2023-05-20T05:10:03.900Z,102673.06
2023-05-20T05:12:31.874Z,102670.94
2023-05-20T05:15:00.074Z,102671.19
2023-05-20T05:17:28.918Z,102677.41
2023-05-20T05:19:57.194Z,102672.66
2023-05-20T05:22:25.162Z,102680.19
2023-05-20T05:24:55.877Z,102670.09
2023-05-20T05:27:24.080Z,102668.78
2023-05-20T05:29:52.010Z,102675.25
2023-05-20T05:32:19.975Z,102679.75
2023-05-20T05:34:47.994Z,102667.47
2023-05-20T05:37:15.947Z,102673.06
2023-05-20T05:39:43.932Z,102668.78
2023-05-20T05:42:13.240Z,102673.28
2023-05-20T05:44:41.188Z,102669.59
2023-05-20T05:47:09.737Z,102671.13
2023-05-20T05:49:37.815Z,102673.06
2023-05-20T05:52:06.458Z,102676.66
2023-05-20T05:54:34.452Z,102676.19
2023-05-20T05:57:02.973Z,102676.84
2023-05-20T05:59:33.308Z,102674.88
2023-05-20T06:02:01.379Z,102675.63
2023-05-20T06:04:29.335Z,102676.97
2023-05-20T06:06:57.336Z,102674.16
2023-05-20T06:09:25.291Z,102673.69
2023-05-20T06:11:53.274Z,102673.63
2023-05-20T06:14:21.248Z,102672.25
2023-05-20T06:16:50.575Z,102670.97
2023-05-20T06:19:19.213Z,102670.56
2023-05-20T06:21:47.197Z,102669.38
2023-05-20T06:24:15.172Z,102657.78
2023-05-20T06:26:43.262Z,102653.53
2023-05-20T06:29:11.219Z,102654.00
2023-05-20T06:31:39.216Z,102659.44
2023-05-20T06:34:08.566Z,102658.34
2023-05-20T06:36:36.522Z,102650.41
2023-05-20T06:39:06.542Z,102657.38
2023-05-20T06:41:34.499Z,102648.19
2023-05-20T06:44:02.491Z,102644.03
2023-05-20T06:46:30.498Z,102642.56
2023-05-20T06:48:58.459Z,102653.19
2023-05-20T06:51:28.117Z,102654.44
2023-05-20T06:53:56.307Z,102639.88
2023-05-20T06:56:24.529Z,102646.31
2023-05-20T06:58:52.472Z,102641.78
2023-05-20T07:01:20.562Z,102635.38
2023-05-20T07:03:48.592Z,102635.84
2023-05-20T07:06:16.569Z,102636.44
2023-05-20T07:08:46.120Z,102629.34
2023-05-20T07:11:14.080Z,102637.69
2023-05-20T07:13:42.055Z,102648.66
2023-05-20T07:16:10.153Z,102636.13
2023-05-20T07:18:38.158Z,102633.34
2023-05-20T07:21:06.159Z,102632.81
2023-05-20T07:23:34.084Z,102643.41
2023-05-20T07:26:03.461Z,102633.03
2023-05-20T07:28:31.489Z,102634.16
2023-05-20T07:31:00.376Z,102627.75
2023-05-20T07:33:29.695Z,102624.94
2023-05-20T07:35:57.698Z,102618.63
2023-05-20T07:38:25.670Z,102613.41
2023-05-20T07:40:53.576Z,102613.31
2023-05-20T07:43:23.010Z,102604.47
2023-05-20T07:45:54.053Z,102607.56
2023-05-20T07:48:22.008Z,102605.09
2023-05-20T07:50:49.932Z,102604.34
2023-05-20T07:53:17.904Z,102600.81
2023-05-20T07:55:45.928Z,102606.44
2023-05-20T07:58:13.875Z,102607.41
2023-05-20T08:00:43.284Z,102607.31
2023-05-20T08:03:11.957Z,102615.47
2023-05-20T08:05:40.527Z,102608.69
2023-05-20T08:08:10.534Z,102607.72
2023-05-20T08:11:05.406Z,102616.38
2023-05-20T08:13:33.588Z,102608.50
2023-05-20T08:16:04.009Z,102611.19
2023-05-20T08:18:32.862Z,102605.72
2023-05-20T08:21:00.966Z,102603.72
2023-05-20T08:23:28.914Z,102605.69
2023-05-20T08:25:57.598Z,102604.81
2023-05-20T08:28:26.018Z,102599.31
2023-05-20T08:30:54.075Z,102596.63
2023-05-20T08:33:23.552Z,102593.50
2023-05-20T08:35:51.580Z,102586.78
2023-05-20T08:38:19.540Z,102587.13
2023-05-20T08:40:47.647Z,102580.94
2023-05-20T08:43:16.402Z,102587.41
2023-05-20T08:45:44.396Z,102584.28
2023-05-20T08:48:12.772Z,102578.88
2023-05-20T08:50:42.322Z,102582.72
2023-05-20T08:53:10.383Z,102577.97
2023-05-20T08:55:45.043Z,102571.09
2023-05-20T08:58:15.516Z,102582.41
2023-05-20T09:00:43.447Z,102579.94
2023-05-20T09:03:11.462Z,102582.56
2023-05-20T09:05:39.436Z,102564.22
2023-05-20T09:08:10.104Z,102559.22
2023-05-20T09:10:39.425Z,102559.34
2023-05-20T09:13:08.206Z,102553.31
2023-05-20T09:15:37.184Z,102554.69
2023-05-20T09:18:08.314Z,102560.03
2023-05-20T09:20:38.234Z,102552.47
2023-05-20T09:23:09.404Z,102552.72
2023-05-20T09:25:38.095Z,102544.09
2023-05-20T09:28:06.224Z,102544.56
2023-05-20T09:30:34.375Z,102549.19
2023-05-20T09:33:04.821Z,102546.47
2023-05-20T09:35:35.911Z,102550.06
2023-05-20T09:38:06.339Z,102548.16
2023-05-20T09:40:37.708Z,102545.31
2023-05-20T09:43:07.320Z,102544.22
2023-05-20T09:45:35.754Z,102537.16
2023-05-20T09:48:04.253Z,102536.13
2023-05-20T09:50:33.286Z,102549.50
2023-05-20T09:53:04.615Z,102540.28
2023-05-20T09:55:33.069Z,102542.00
2023-05-20T09:58:04.448Z,102537.78
2023-05-20T10:00:32.451Z,102540.25
2023-05-20T10:03:01.104Z,102544.75
2023-05-20T10:05:30.930Z,102535.84
2023-05-20T10:08:29.330Z,102534.97
2023-05-20T10:11:08.188Z,102528.59
2023-05-20T10:13:47.531Z,102532.09
2023-05-20T10:16:25.198Z,102533.47
2023-05-20T10:19:00.108Z,102521.03
2023-05-20T10:21:28.225Z,102516.69
2023-05-20T10:23:56.359Z,102516.88
2023-05-20T10:26:24.298Z,102513.53
2023-05-20T10:28:53.655Z,102509.78
2023-05-20T10:31:23.168Z,102502.84
2023-05-20T10:33:54.218Z,102504.00
2023-05-20T10:36:26.981Z,102500.94
2023-05-20T10:38:55.959Z,102496.47
2023-05-20T10:41:27.817Z,102497.59
2023-05-20T10:44:04.286Z,102491.41
2023-05-20T10:46:41.789Z,102488.28
2023-05-20T10:49:24.190Z,102488.09
2023-05-20T10:51:55.661Z,102478.28
2023-05-20T10:54:24.136Z,102476.59
2023-05-20T10:56:53.574Z,102478.19
2023-05-20T10:59:23.267Z,102478.78
2023-05-20T11:01:51.272Z,102475.16
2023-05-20T11:04:19.904Z,102470.56
2023-05-20T11:06:53.818Z,102477.66
2023-05-20T11:09:21.951Z,102474.06
2023-05-20T11:11:50.564Z,102476.91
2023-05-20T11:14:20.136Z,102467.22
2023-05-20T11:16:53.099Z,102467.53
2023-05-20T11:19:21.595Z,102477.13
2023-05-20T11:21:50.160Z,102475.94
2023-05-20T11:24:25.335Z,102482.66
2023-05-20T11:26:53.834Z,102469.38
2023-05-20T11:29:22.514Z,102459.28
2023-05-20T11:31:52.358Z,102467.34
2023-05-20T11:34:25.025Z,102463.66
2023-05-20T11:36:58.499Z,102457.97
2023-05-20T11:39:28.073Z,102458.09
2023-05-20T11:41:56.108Z,102460.06
2023-05-20T11:44:24.192Z,102462.03
2023-05-20T11:46:53.584Z,102458.53
2023-05-20T11:49:21.500Z,102456.25
2023-05-20T11:51:49.653Z,102453.72
2023-05-20T11:54:17.849Z,102457.31
2023-05-20T11:56:46.131Z,102451.66
2023-05-20T11:59:16.230Z,102452.63
2023-05-20T12:01:44.604Z,102455.25
2023-05-20T12:04:14.870Z,102459.06
2023-05-20T12:06:44.222Z,102452.47
2023-05-20T12:09:14.071Z,102451.00
2023-05-20T12:11:42.433Z,102452.41
2023-05-20T12:14:10.905Z,102462.88
2023-05-20T12:16:39.449Z,102445.84
2023-05-20T12:19:08.804Z,102444.06
2023-05-20T12:21:38.204Z,102445.56
2023-05-20T12:24:08.551Z,102450.03
2023-05-20T12:26:36.579Z,102444.78
2023-05-20T12:29:04.591Z,102442.66
2023-05-20T12:31:34.643Z,102429.91
2023-05-20T12:34:03.147Z,102425.56
2023-05-20T12:36:31.577Z,102433.75
2023-05-20T12:39:00.934Z,102424.47
2023-05-20T12:41:28.865Z,102427.13
2023-05-20T12:43:56.848Z,102415.31
2023-05-20T12:46:24.832Z,102421.28
2023-05-20T12:48:53.254Z,102423.00
2023-05-20T12:51:21.247Z,102422.66
2023-05-20T12:53:49.263Z,102422.03
2023-05-20T12:56:19.348Z,102421.94
2023-05-20T12:58:47.315Z,102421.72
2023-05-20T13:01:15.274Z,102419.97
2023-05-20T13:03:43.409Z,102406.94
2023-05-20T13:06:11.395Z,102411.78
2023-05-20T13:08:39.357Z,102399.06
2023-05-20T13:11:07.354Z,102390.25
2023-05-20T13:13:36.679Z,102393.88
2023-05-20T13:16:05.368Z,102389.63
2023-05-20T13:18:33.378Z,102386.19
2023-05-20T13:21:01.302Z,102384.59
2023-05-20T13:23:32.191Z,102385.56
2023-05-20T13:26:00.376Z,102392.03
2023-05-20T13:28:28.356Z,102384.69
2023-05-20T13:30:57.782Z,102378.00
2023-05-20T13:33:25.757Z,102382.47
2023-05-20T13:35:53.713Z,102375.88
2023-05-20T13:38:21.702Z,102369.53
2023-05-20T13:40:49.804Z,102358.50
2023-05-20T13:43:17.742Z,102348.53
2023-05-20T13:45:45.734Z,102368.06
2023-05-20T13:48:15.164Z,102356.75
2023-05-20T13:50:43.181Z,102353.28
2023-05-20T13:53:12.577Z,102356.59
2023-05-20T13:55:40.586Z,102348.53
2023-05-20T13:58:09.192Z,102351.31
2023-05-20T14:00:37.413Z,102351.69
2023-05-20T14:03:08.986Z,102342.19
2023-05-20T14:05:38.488Z,102345.97
2023-05-20T14:08:06.742Z,102341.88
2023-05-20T14:10:34.909Z,102337.00
2023-05-20T14:13:03.188Z,102331.72
2023-05-20T14:15:31.497Z,102332.44
2023-05-20T14:17:59.686Z,102327.94
2023-05-20T14:20:27.709Z,102319.19
2023-05-20T14:22:57.340Z,102322.25
2023-05-20T14:25:25.328Z,102314.94
2023-05-20T14:27:53.242Z,102319.97
2023-05-20T14:30:21.200Z,102309.81
2023-05-20T14:32:49.186Z,102297.88
2023-05-20T14:35:18.287Z,102300.88
2023-05-20T14:37:46.412Z,102298.44
2023-05-20T14:40:16.644Z,102301.09
2023-05-20T14:42:44.583Z,102295.09
2023-05-20T14:45:12.675Z,102295.94
2023-05-20T14:47:41.095Z,102298.47
2023-05-20T14:50:09.532Z,102304.50
2023-05-20T14:52:37.517Z,102297.16
2023-05-20T14:55:06.138Z,102293.25
2023-05-20T14:57:35.728Z,102298.19
2023-05-20T15:00:04.174Z,102288.66
2023-05-20T15:02:32.307Z,102289.63
2023-05-20T15:05:00.306Z,102283.47
2023-05-20T15:07:28.234Z,102281.06
2023-05-20T15:09:56.402Z,102279.72
2023-05-20T15:12:24.390Z,102280.34
2023-05-20T15:14:53.701Z,102264.44
2023-05-20T15:17:21.745Z,102277.00
2023-05-20T15:19:49.919Z,102277.56
2023-05-20T15:22:17.844Z,102277.16
2023-05-20T15:24:45.838Z,102273.47
2023-05-20T15:27:13.779Z,102266.13
2023-05-20T15:29:41.739Z,102271.19
2023-05-20T15:32:11.308Z,102264.94
2023-05-20T15:34:39.276Z,102265.31
2023-05-20T15:37:07.211Z,102262.59
2023-05-20T15:39:38.373Z,102266.13
2023-05-20T15:42:06.543Z,102264.72
2023-05-20T15:44:36.096Z,102263.00
2023-05-20T15:47:05.853Z,102259.25
2023-05-20T15:49:35.472Z,102257.50
2023-05-20T15:52:04.399Z,102261.44
2023-05-20T15:54:32.630Z,102265.00
2023-05-20T15:57:00.630Z,102258.97
2023-05-20T15:59:28.562Z,102260.19
2023-05-20T16:01:56.689Z,102259.53
2023-05-20T16:04:24.890Z,102255.25
2023-05-20T16:06:54.293Z,102250.28
2023-05-20T16:09:22.468Z,102253.47
2023-05-20T16:11:50.472Z,102252.94
2023-05-20T16:14:18.572Z,102254.94
2023-05-20T16:16:46.677Z,102255.88
2023-05-20T16:19:14.744Z,102252.53
2023-05-20T16:21:42.724Z,102246.69
2023-05-20T16:24:12.464Z,102241.91
2023-05-20T16:26:40.595Z,102234.59
2023-05-20T16:29:08.599Z,102238.50
2023-05-20T16:31:36.576Z,102233.28
2023-05-20T16:34:05.079Z,102227.31
2023-05-20T16:36:33.019Z,102230.44
2023-05-20T16:39:00.988Z,102227.56
2023-05-20T16:41:30.763Z,102224.09
2023-05-20T16:43:58.710Z,102230.38
2023-05-20T16:46:26.667Z,102210.34
2023-05-20T16:48:54.613Z,102230.94
2023-05-20T16:51:22.721Z,102222.69
2023-05-20T16:53:50.778Z,102230.31
2023-05-20T16:56:18.755Z,102225.03
2023-05-20T16:58:48.528Z,102219.72
2023-05-20T17:01:17.359Z,102226.28
2023-05-20T17:03:45.414Z,102222.94
2023-05-20T17:06:13.469Z,102213.94
2023-05-20T17:08:41.391Z,102211.84
2023-05-20T17:11:09.346Z,102218.88
2023-05-20T17:13:37.274Z,102224.19
2023-05-20T17:16:09.645Z,102223.47
2023-05-20T17:18:37.817Z,102218.09
2023-05-20T17:21:06.071Z,102223.03
2023-05-20T17:23:34.068Z,102223.78
2023-05-20T17:26:02.065Z,102216.84
2023-05-20T17:28:29.998Z,102221.34
2023-05-20T17:30:57.970Z,102216.63
2023-05-20T17:33:27.401Z,102211.72
2023-05-20T17:35:55.414Z,102214.19
2023-05-20T17:38:26.195Z,102212.69
2023-05-20T17:40:54.215Z,102210.53
2023-05-20T17:43:22.300Z,102213.44
2023-05-20T17:45:50.325Z,102212.56
2023-05-20T17:48:18.305Z,102215.28
2023-05-20T17:50:47.769Z,102213.44
2023-05-20T17:53:15.865Z,102210.28
2023-05-20T17:55:47.050Z,102213.91
2023-05-20T17:58:15.064Z,102207.69
2023-05-20T18:00:43.023Z,102215.41
2023-05-20T18:03:11.236Z,102214.25
2023-05-20T18:05:39.210Z,102212.19
2023-05-20T18:08:08.568Z,102215.56
2023-05-20T18:10:36.819Z,102205.03
2023-05-20T18:13:05.010Z,102208.91
2023-05-20T18:15:32.943Z,102195.88
2023-05-20T18:18:01.478Z,102213.41
2023-05-20T18:20:29.592Z,102205.13
2023-05-20T18:22:58.584Z,102204.69
2023-05-20T18:25:28.143Z,102205.41
2023-05-20T18:27:56.083Z,102199.34
2023-05-20T18:30:24.335Z,102199.00
2023-05-20T18:32:53.291Z,102203.78
2023-05-20T18:35:21.354Z,102206.47
2023-05-20T18:37:49.391Z,102205.09
2023-05-20T18:40:19.080Z,102206.44
2023-05-20T18:42:48.561Z,102211.06
2023-05-20T18:45:16.702Z,102204.94
2023-05-20T18:47:44.712Z,102205.88
2023-05-20T18:50:13.139Z,102214.44
2023-05-20T18:52:41.079Z,102214.50
2023-05-20T18:55:09.732Z,102218.63
2023-05-20T18:57:39.256Z,102225.91
2023-05-20T19:00:12.391Z,102234.91
2023-05-20T19:02:40.758Z,102224.34
2023-05-20T19:05:11.405Z,102228.53
2023-05-20T19:07:39.802Z,102232.00
2023-05-20T19:10:09.205Z,102232.31
2023-05-20T19:12:37.270Z,102236.59
2023-05-20T19:15:05.957Z,102232.31
2023-05-20T19:17:35.269Z,102231.63
2023-05-20T19:20:06.878Z,102236.50
2023-05-20T19:22:35.053Z,102239.75
2023-05-20T19:25:03.056Z,102236.50
2023-05-20T19:27:31.265Z,102240.94
2023-05-20T19:29:59.377Z,102239.03
2023-05-20T19:32:27.387Z,102252.28
2023-05-20T19:34:56.735Z,102248.13
2023-05-20T19:37:25.358Z,102257.06
2023-05-20T19:39:53.355Z,102248.69
2023-05-20T19:42:21.351Z,102245.66
2023-05-20T19:44:49.686Z,102245.44
2023-05-20T19:47:17.695Z,102244.31
2023-05-20T19:49:45.665Z,102238.09
2023-05-20T19:52:14.962Z,102243.91
2023-05-20T19:54:43.190Z,102237.81
2023-05-20T19:57:11.305Z,102232.97
2023-05-20T19:59:39.296Z,102238.25
2023-05-20T20:02:07.458Z,102240.28
2023-05-20T20:04:35.412Z,102234.47
2023-05-20T20:07:03.660Z,102236.56
2023-05-20T20:09:33.127Z,102243.06
2023-05-20T20:12:02.708Z,102244.16
2023-05-20T20:14:30.692Z,102234.97
2023-05-20T20:16:59.757Z,102230.00
2023-05-20T20:19:28.621Z,102232.03
2023-05-20T20:21:58.229Z,102235.19
2023-05-20T20:24:26.898Z,102235.59
2023-05-20T20:26:56.997Z,102237.81
2023-05-20T20:29:25.072Z,102238.50
2023-05-20T20:31:53.242Z,102240.06
2023-05-20T20:34:22.076Z,102241.56
2023-05-20T20:36:51.272Z,102235.88
2023-05-20T20:39:19.993Z,102234.78
2023-05-20T20:41:50.269Z,102231.34
2023-05-20T20:44:22.575Z,102232.34
2023-05-20T20:46:51.591Z,102232.47
2023-05-20T20:49:19.876Z,102234.63
2023-05-20T20:51:48.412Z,102241.00
2023-05-20T20:54:16.673Z,102238.91
2023-05-20T20:56:47.068Z,102247.63
2023-05-20T20:59:15.993Z,102244.16
2023-05-20T21:01:45.726Z,102230.06
2023-05-20T21:04:14.585Z,102231.47
2023-05-20T21:06:45.973Z,102230.63
2023-05-20T21:09:14.038Z,102242.13
2023-05-20T21:11:43.031Z,102236.75
2023-05-20T21:14:11.368Z,102226.84
2023-05-20T21:16:39.406Z,102229.91
2023-05-20T21:19:08.817Z,102236.66
2023-05-20T21:21:36.982Z,102226.59
2023-05-20T21:24:05.142Z,102224.38
2023-05-20T21:26:33.089Z,102221.72
2023-05-20T21:29:01.071Z,102218.91
2023-05-20T21:31:29.055Z,102226.25
2023-05-20T21:33:56.979Z,102222.59
2023-05-20T21:36:26.322Z,102210.72
2023-05-20T21:38:54.240Z,102205.34
2023-05-20T21:41:23.511Z,102215.63
2023-05-20T21:43:51.613Z,102200.56
2023-05-20T21:46:19.579Z,102204.00
2023-05-20T21:48:47.551Z,102202.16
2023-05-20T21:51:15.647Z,102199.13
2023-05-20T21:53:45.072Z,102203.75
2023-05-20T21:56:13.006Z,102202.06
2023-05-20T21:58:41.884Z,102201.72
2023-05-20T22:01:10.479Z,102194.50
2023-05-20T22:03:39.987Z,102197.78
2023-05-20T22:06:08.273Z,102202.44
2023-05-20T22:08:36.233Z,102195.94
2023-05-20T22:11:07.501Z,102194.63
2023-05-20T22:13:36.394Z,102201.22
2023-05-20T22:16:05.088Z,102196.09
2023-05-20T22:18:33.281Z,102195.97
2023-05-20T22:21:01.358Z,102190.72
2023-05-20T22:23:29.878Z,102189.00
2023-05-20T22:25:57.948Z,102183.63
2023-05-20T22:28:27.320Z,102180.94
2023-05-20T22:30:55.863Z,102184.38
2023-05-20T22:33:24.408Z,102186.19
2023-05-20T22:35:53.581Z,102178.84
2023-05-20T22:38:22.038Z,102173.59
2023-05-20T22:40:49.953Z,102167.00
2023-05-20T22:43:17.893Z,102162.38
2023-05-20T22:45:47.275Z,102164.94
2023-05-20T22:48:15.361Z,102151.84
2023-05-20T22:50:43.277Z,102150.16
2023-05-20T22:53:11.260Z,102156.00
2023-05-20T22:55:39.729Z,102152.72
2023-05-20T22:58:08.152Z,102147.69
2023-05-20T23:00:36.442Z,102140.75
2023-05-20T23:03:06.401Z,102140.75
2023-05-20T23:05:34.489Z,102147.19
2023-05-20T23:08:02.573Z,102145.63
2023-05-20T23:10:30.617Z,102145.50
2023-05-20T23:12:58.534Z,102146.44
2023-05-20T23:15:27.741Z,102128.44
2023-05-20T23:17:55.753Z,102129.09
2023-05-20T23:20:25.752Z,102125.66
2023-05-20T23:22:53.672Z,102129.69
2023-05-20T23:25:22.049Z,102130.28
2023-05-20T23:27:49.999Z,102126.50
2023-05-20T23:30:17.919Z,102121.00
2023-05-20T23:32:45.916Z,102113.75
2023-05-20T23:35:14.390Z,102110.84
2023-05-20T23:37:43.690Z,102106.44
2023-05-20T23:40:12.267Z,102099.59
2023-05-20T23:42:40.559Z,102108.03
2023-05-20T23:45:09.443Z,102102.16
2023-05-20T23:47:37.855Z,102100.69
2023-05-20T23:50:06.320Z,102104.34
2023-05-20T23:52:34.302Z,102093.94
2023-05-20T23:55:03.658Z,102097.25
2023-05-20T23:57:31.576Z,102096.00
2023-05-20T23:59:59.896Z,102088.81
